createdAt,value
2023-03-16T00:00:51.739Z,-0.20
2023-03-16T00:03:20.352Z,-0.20
2023-03-16T00:05:53.205Z,-0.20
2023-03-16T00:08:20.163Z,-0.20
2023-03-16T00:10:47.540Z,-0.18
2023-03-16T00:13:23.429Z,-0.20
2023-03-16T00:15:58.566Z,-0.16
2023-03-16T00:18:28.465Z,-0.10
2023-03-16T00:21:04.607Z,-0.10
2023-03-16T00:23:35.278Z,-0.10
2023-03-16T00:26:06.668Z,-0.10
2023-03-16T00:28:35.682Z,-0.10
2023-03-16T00:31:07.474Z,0.00
2023-03-16T00:33:34.684Z,0.00
2023-03-16T00:36:03.637Z,0.10
2023-03-16T00:38:36.350Z,0.14
2023-03-16T00:41:06.458Z,0.20
2023-03-16T00:43:40.316Z,0.26
2023-03-16T00:46:10.780Z,0.30
2023-03-16T00:48:41.971Z,0.40
2023-03-16T00:51:14.065Z,0.40
2023-03-16T00:53:44.193Z,0.40
2023-03-16T00:56:12.997Z,0.30
2023-03-16T00:58:42.412Z,0.20
2023-03-16T01:01:14.162Z,0.10
2023-03-16T01:03:41.067Z,0.00
2023-03-16T01:06:12.015Z,-0.10
2023-03-16T01:08:40.121Z,-0.20
2023-03-16T01:11:11.079Z,-0.30
2023-03-16T01:13:39.086Z,-0.30
2023-03-16T01:16:07.221Z,-0.34
2023-03-16T01:18:33.838Z,-0.38
2023-03-16T01:21:06.004Z,-0.40
2023-03-16T01:23:33.197Z,-0.40
2023-03-16T01:26:00.096Z,-0.40
2023-03-16T01:28:31.236Z,-0.40
2023-03-16T01:31:06.416Z,-0.30
2023-03-16T01:33:33.885Z,-0.30
2023-03-16T01:36:11.171Z,-0.30
2023-03-16T01:38:38.061Z,-0.30
2023-03-16T01:41:06.140Z,-0.40
2023-03-16T01:43:36.812Z,-0.40
2023-03-16T01:46:06.056Z,-0.40
2023-03-16T01:48:46.914Z,-0.40
2023-03-16T01:51:29.137Z,-0.40
2023-03-16T01:54:13.994Z,-0.40
2023-03-16T01:56:54.667Z,-0.48
2023-03-16T01:59:28.538Z,-0.50
2023-03-16T02:01:56.300Z,-0.50
2023-03-16T02:04:38.580Z,-0.50
2023-03-16T02:07:07.256Z,-0.50
2023-03-16T02:09:42.156Z,-0.50
2023-03-16T02:12:17.294Z,-0.50
2023-03-16T02:14:46.471Z,-0.40
2023-03-16T02:17:17.064Z,-0.40
2023-03-16T02:19:53.152Z,-0.30
2023-03-16T02:22:24.259Z,-0.30
2023-03-16T02:24:53.301Z,-0.20
2023-03-16T02:28:16.597Z,-0.20
2023-03-16T02:30:43.444Z,-0.20
2023-03-16T02:33:11.898Z,-0.20
2023-03-16T02:35:38.374Z,-0.10
2023-03-16T02:38:04.893Z,-0.10
2023-03-16T02:40:34.896Z,-0.10
2023-03-16T02:43:18.400Z,-0.10
2023-03-16T02:45:51.908Z,-0.10
2023-03-16T02:48:31.781Z,-0.10
2023-03-16T02:50:58.508Z,0.00
2023-03-16T02:53:24.936Z,0.04
2023-03-16T02:55:51.432Z,0.14
2023-03-16T02:58:17.973Z,0.20
2023-03-16T03:00:45.150Z,0.30
2023-03-16T03:03:11.641Z,0.30
2023-03-16T03:05:38.271Z,0.30
2023-03-16T03:08:05.388Z,0.30
2023-03-16T03:10:32.124Z,0.30
2023-03-16T03:12:58.976Z,0.30
2023-03-16T03:15:25.515Z,0.30
2023-03-16T03:17:52.083Z,0.30
2023-03-16T03:20:18.796Z,0.36
2023-03-16T03:22:48.453Z,0.30
2023-03-16T03:25:17.898Z,0.30
2023-03-16T03:27:46.133Z,0.20
2023-03-16T03:30:17.900Z,0.10
2023-03-16T03:32:44.703Z,0.04
2023-03-16T03:35:15.315Z,0.00
2023-03-16T03:37:43.698Z,0.10
2023-03-16T03:40:13.772Z,0.10
2023-03-16T03:42:41.748Z,0.00
2023-03-16T03:45:12.176Z,0.00
2023-03-16T03:47:40.190Z,-0.02
2023-03-16T03:50:09.088Z,-0.10
2023-03-16T03:52:35.791Z,-0.10
2023-03-16T03:55:02.390Z,0.00
2023-03-16T03:57:28.764Z,0.00
2023-03-16T03:59:55.156Z,-0.02
2023-03-16T04:02:21.891Z,0.00
2023-03-16T04:04:48.710Z,0.00
2023-03-16T04:07:15.874Z,0.00
2023-03-16T04:09:43.335Z,0.00
2023-03-16T04:12:13.576Z,0.00
2023-03-16T04:14:40.049Z,-0.04
2023-03-16T04:17:06.902Z,-0.10
2023-03-16T04:19:33.324Z,-0.10
2023-03-16T04:21:59.795Z,-0.10
2023-03-16T04:24:26.181Z,-0.10
2023-03-16T04:26:53.644Z,-0.10
2023-03-16T04:29:20.293Z,-0.10
2023-03-16T04:31:46.802Z,-0.10
2023-03-16T04:34:14.906Z,-0.10
2023-03-16T04:36:42.136Z,-0.12
2023-03-16T04:39:09.954Z,-0.10
2023-03-16T04:41:36.818Z,-0.10
2023-03-16T04:44:04.085Z,-0.10
2023-03-16T04:46:30.629Z,-0.10
2023-03-16T04:48:57.725Z,-0.10
2023-03-16T04:51:25.762Z,-0.10
2023-03-16T04:53:52.364Z,-0.08
2023-03-16T04:56:18.964Z,0.00
2023-03-16T04:58:48.221Z,-0.02
2023-03-16T05:01:16.518Z,-0.04
2023-03-16T05:03:43.304Z,-0.10
2023-03-16T05:06:11.655Z,-0.10
2023-03-16T05:08:38.096Z,-0.08
2023-03-16T05:11:04.959Z,-0.02
2023-03-16T05:13:31.524Z,0.00
2023-03-16T05:15:58.033Z,0.00
2023-03-16T05:18:24.729Z,0.00
2023-03-16T05:20:55.201Z,0.00
2023-03-16T05:23:22.752Z,0.08
2023-03-16T05:25:50.366Z,0.10
2023-03-16T05:28:17.381Z,0.10
2023-03-16T05:30:47.270Z,0.14
2023-03-16T05:33:13.772Z,0.20
2023-03-16T05:35:40.367Z,0.20
2023-03-16T05:38:08.074Z,0.20
2023-03-16T05:40:36.059Z,0.20
2023-03-16T05:43:03.825Z,0.20
2023-03-16T05:45:30.385Z,0.20
2023-03-16T05:47:56.900Z,0.26
2023-03-16T05:50:23.644Z,0.30
2023-03-16T05:52:50.024Z,0.30
2023-03-16T05:55:18.066Z,0.40
2023-03-16T05:57:45.028Z,0.44
2023-03-16T06:00:15.202Z,0.50
2023-03-16T06:02:43.910Z,0.60
2023-03-16T06:05:11.016Z,0.70
2023-03-16T06:07:37.586Z,0.70
2023-03-16T06:10:06.149Z,0.70
2023-03-16T06:12:33.881Z,0.70
2023-03-16T06:15:01.420Z,0.70
2023-03-16T06:17:27.835Z,0.70
2023-03-16T06:19:54.503Z,0.70
2023-03-16T06:22:21.243Z,0.70
2023-03-16T06:24:48.154Z,0.70
2023-03-16T06:27:14.534Z,0.80
2023-03-16T06:29:40.966Z,0.90
2023-03-16T06:32:07.445Z,1.00
2023-03-16T06:34:33.883Z,1.10
2023-03-16T06:37:00.634Z,1.26
2023-03-16T06:39:27.030Z,1.40
2023-03-16T06:41:53.750Z,1.50
2023-03-16T06:44:24.111Z,1.60
2023-03-16T06:46:50.524Z,1.60
2023-03-16T06:49:17.201Z,1.70
2023-03-16T06:51:43.621Z,1.80
2023-03-16T06:54:10.023Z,1.90
2023-03-16T06:56:36.528Z,2.10
2023-03-16T06:59:03.143Z,2.10
2023-03-16T07:01:29.732Z,2.20
2023-03-16T07:03:56.709Z,2.30
2023-03-16T07:06:23.386Z,2.30
2023-03-16T07:08:51.187Z,2.40
2023-03-16T07:11:17.849Z,2.40
2023-03-16T07:13:45.863Z,2.50
2023-03-16T07:16:14.281Z,2.60
2023-03-16T07:18:43.610Z,2.60
2023-03-16T07:21:11.351Z,2.62
2023-03-16T07:23:39.938Z,2.70
2023-03-16T07:26:07.652Z,2.70
2023-03-16T07:28:41.454Z,2.70
2023-03-16T07:31:08.924Z,2.80
2023-03-16T07:33:36.880Z,2.90
2023-03-16T07:36:04.945Z,2.90
2023-03-16T07:38:32.958Z,3.00
2023-03-16T07:41:00.450Z,3.10
2023-03-16T07:43:28.749Z,3.10
2023-03-16T07:45:55.782Z,3.04
2023-03-16T07:48:25.413Z,3.08
2023-03-16T07:50:53.590Z,3.02
2023-03-16T07:53:22.439Z,3.10
2023-03-16T07:55:49.174Z,3.08
2023-03-16T07:58:15.679Z,3.10
2023-03-16T08:00:42.445Z,3.10
2023-03-16T08:03:09.632Z,3.20
2023-03-16T08:05:36.469Z,3.22
2023-03-16T08:08:03.173Z,3.30
2023-03-16T08:10:30.538Z,3.34
2023-03-16T08:12:57.339Z,3.40
2023-03-16T08:15:24.378Z,3.30
2023-03-16T08:17:51.854Z,3.30
2023-03-16T08:20:21.857Z,3.28
2023-03-16T08:22:51.666Z,3.30
2023-03-16T08:25:19.313Z,3.30
2023-03-16T08:27:47.084Z,3.30
2023-03-16T08:30:16.590Z,3.30
2023-03-16T08:32:44.611Z,3.30
2023-03-16T08:35:14.884Z,3.56
2023-03-16T08:37:43.424Z,3.66
2023-03-16T08:40:16.270Z,3.70
2023-03-16T08:42:44.362Z,3.60
2023-03-16T08:45:14.166Z,3.50
2023-03-16T08:47:42.101Z,3.50
2023-03-16T08:50:12.622Z,3.50
2023-03-16T08:52:42.205Z,3.50
2023-03-16T08:55:10.483Z,3.50
2023-03-16T08:57:40.764Z,3.50
2023-03-16T09:00:15.279Z,3.60
2023-03-16T09:02:43.354Z,3.62
2023-03-16T09:05:17.659Z,3.70
2023-03-16T09:07:45.812Z,3.86
2023-03-16T09:10:15.551Z,4.00
2023-03-16T09:12:43.587Z,4.10
2023-03-16T09:15:13.124Z,4.20
2023-03-16T09:17:41.118Z,4.20
2023-03-16T09:20:21.849Z,4.30
2023-03-16T09:22:49.899Z,4.40
2023-03-16T09:25:19.387Z,4.50
2023-03-16T09:27:46.258Z,4.74
2023-03-16T09:30:13.721Z,4.90
2023-03-16T09:32:40.648Z,4.90
2023-03-16T09:35:08.288Z,4.94
2023-03-16T09:37:45.150Z,5.00
2023-03-16T09:40:24.190Z,5.00
2023-03-16T09:43:15.327Z,5.00
2023-03-16T09:45:57.885Z,5.10
2023-03-16T09:48:31.068Z,5.16
2023-03-16T09:51:03.053Z,5.20
2023-03-16T09:53:38.678Z,5.20
2023-03-16T09:56:15.788Z,5.20
2023-03-16T09:58:42.282Z,5.30
2023-03-16T10:01:28.216Z,5.40
2023-03-16T10:04:15.816Z,5.50
2023-03-16T10:07:11.674Z,5.60
2023-03-16T10:10:01.416Z,5.60
2023-03-16T10:12:41.400Z,5.64
2023-03-16T10:15:22.997Z,5.80
2023-03-16T10:18:32.607Z,5.72
2023-03-16T10:21:05.377Z,5.80
2023-03-16T10:23:36.074Z,5.64
2023-03-16T10:26:19.632Z,5.60
2023-03-16T10:28:47.441Z,5.50
2023-03-16T10:31:20.857Z,5.40
2023-03-16T10:33:55.128Z,5.40
2023-03-16T10:36:33.966Z,5.30
2023-03-16T10:39:13.669Z,5.24
2023-03-16T10:41:45.252Z,5.20
2023-03-16T10:47:07.601Z,5.10
2023-03-16T10:49:48.383Z,5.12
2023-03-16T10:52:42.385Z,5.28
2023-03-16T10:55:19.099Z,5.40
2023-03-16T10:57:55.636Z,5.50
2023-03-16T11:00:30.443Z,5.44
2023-03-16T11:02:59.790Z,5.50
2023-03-16T11:05:33.819Z,5.40
2023-03-16T11:08:18.303Z,5.30
2023-03-16T11:10:56.135Z,5.30
2023-03-16T11:13:32.802Z,5.40
2023-03-16T11:16:23.364Z,5.50
2023-03-16T11:18:59.677Z,5.64
2023-03-16T11:21:58.543Z,5.78
2023-03-16T11:24:52.148Z,5.80
2023-03-16T11:27:25.728Z,5.80
2023-03-16T11:30:04.901Z,5.90
2023-03-16T11:32:39.631Z,6.04
2023-03-16T11:35:38.456Z,6.30
2023-03-16T11:38:17.601Z,6.58
2023-03-16T11:41:04.123Z,6.68
2023-03-16T11:43:53.393Z,6.72
2023-03-16T11:46:27.856Z,6.90
2023-03-16T11:49:39.491Z,7.06
2023-03-16T11:52:34.620Z,7.10
2023-03-16T11:55:47.523Z,7.00
2023-03-16T11:58:40.295Z,6.90
2023-03-16T12:01:29.672Z,6.98
2023-03-16T12:04:23.988Z,7.00
2023-03-16T12:07:31.115Z,7.10
2023-03-16T12:10:22.954Z,7.20
2023-03-16T12:13:19.780Z,7.30
2023-03-16T12:15:53.877Z,7.50
2023-03-16T12:18:33.232Z,7.92
2023-03-16T12:21:14.171Z,8.10
2023-03-16T12:24:00.211Z,8.20
2023-03-16T12:26:34.109Z,8.02
2023-03-16T12:29:33.499Z,7.54
2023-03-16T12:32:56.729Z,6.56
2023-03-16T12:35:41.626Z,5.70
2023-03-16T12:38:30.600Z,5.20
2023-03-16T12:41:23.910Z,5.00
2023-03-16T12:44:26.052Z,5.00
2023-03-16T12:47:07.228Z,5.10
2023-03-16T12:49:36.506Z,5.20
2023-03-16T12:52:12.021Z,5.12
2023-03-16T12:55:12.729Z,5.24
2023-03-16T12:57:42.803Z,5.40
2023-03-16T13:00:12.964Z,5.40
2023-03-16T13:02:56.602Z,5.30
2023-03-16T13:05:48.931Z,5.10
2023-03-16T13:08:22.530Z,5.00
2023-03-16T13:11:14.549Z,4.80
2023-03-16T13:14:01.250Z,4.68
2023-03-16T13:16:35.748Z,4.60
2023-03-16T13:19:28.828Z,4.60
2023-03-16T13:22:27.364Z,4.70
2023-03-16T13:25:11.698Z,4.84
2023-03-16T13:27:40.177Z,5.04
2023-03-16T13:30:23.027Z,5.28
2023-03-16T13:32:57.251Z,5.40
2023-03-16T13:35:29.721Z,5.30
2023-03-16T13:38:05.420Z,5.20
2023-03-16T13:40:34.322Z,5.10
2023-03-16T13:43:01.507Z,5.20
2023-03-16T13:45:37.880Z,5.34
2023-03-16T13:48:04.901Z,5.60
2023-03-16T13:50:34.666Z,5.70
2023-03-16T13:53:24.195Z,5.80
2023-03-16T13:55:55.064Z,5.86
2023-03-16T13:58:43.379Z,5.88
2023-03-16T14:01:26.724Z,5.90
2023-03-16T14:03:58.894Z,6.10
2023-03-16T14:06:30.817Z,6.28
2023-03-16T14:09:07.423Z,6.30
2023-03-16T14:11:34.185Z,6.10
2023-03-16T14:14:12.437Z,5.94
2023-03-16T14:16:38.878Z,5.80
2023-03-16T14:19:18.711Z,5.68
2023-03-16T14:21:46.418Z,5.40
2023-03-16T14:24:38.362Z,5.20
2023-03-16T14:27:22.650Z,5.00
2023-03-16T14:30:00.120Z,4.80
2023-03-16T14:32:31.289Z,4.70
2023-03-16T14:35:21.796Z,4.60
2023-03-16T14:37:51.438Z,4.60
2023-03-16T14:40:32.837Z,4.62
2023-03-16T14:43:04.121Z,4.60
2023-03-16T14:45:34.307Z,4.58
2023-03-16T14:48:22.684Z,4.50
2023-03-16T14:50:54.732Z,4.50
2023-03-16T14:53:21.333Z,4.42
2023-03-16T14:55:47.838Z,4.50
2023-03-16T14:58:16.887Z,4.58
2023-03-16T15:00:52.750Z,4.62
2023-03-16T15:03:32.206Z,4.70
2023-03-16T15:06:00.786Z,4.70
2023-03-16T15:08:36.408Z,4.60
2023-03-16T15:11:06.230Z,4.50
2023-03-16T15:13:39.060Z,4.60
2023-03-16T15:16:07.051Z,4.60
2023-03-16T15:18:34.382Z,4.60
2023-03-16T15:21:02.205Z,4.70
2023-03-16T15:23:30.498Z,4.70
2023-03-16T15:26:02.276Z,4.70
2023-03-16T15:28:29.081Z,4.50
2023-03-16T15:31:00.155Z,4.46
2023-03-16T15:33:27.621Z,4.40
2023-03-16T15:35:58.008Z,4.30
2023-03-16T15:38:39.379Z,4.20
2023-03-16T15:41:10.895Z,4.20
2023-03-16T15:43:37.850Z,4.24
2023-03-16T15:46:05.722Z,4.30
2023-03-16T15:48:33.388Z,4.34
2023-03-16T15:51:07.792Z,4.40
2023-03-16T15:53:53.240Z,4.40
2023-03-16T15:56:29.207Z,4.50
2023-03-16T15:58:59.866Z,4.50
2023-03-16T16:01:38.944Z,4.40
2023-03-16T16:04:17.054Z,4.40
2023-03-16T16:06:43.791Z,4.40
2023-03-16T16:09:10.583Z,4.36
2023-03-16T16:11:38.517Z,4.30
2023-03-16T16:14:05.477Z,4.20
2023-03-16T16:16:33.792Z,4.10
2023-03-16T16:19:00.396Z,4.00
2023-03-16T16:21:30.336Z,4.00
2023-03-16T16:23:56.996Z,3.90
2023-03-16T16:26:27.874Z,3.90
2023-03-16T16:28:58.663Z,3.80
2023-03-16T16:31:30.013Z,3.80
2023-03-16T16:33:58.403Z,3.80
2023-03-16T16:36:24.910Z,3.80
2023-03-16T16:38:51.526Z,3.76
2023-03-16T16:41:29.408Z,3.70
2023-03-16T16:43:57.243Z,3.60
2023-03-16T16:46:27.979Z,3.50
2023-03-16T16:49:01.330Z,3.50
2023-03-16T16:51:32.028Z,3.40
2023-03-16T16:54:02.588Z,3.40
2023-03-16T16:56:36.096Z,3.40
2023-03-16T16:59:18.617Z,3.30
2023-03-16T17:01:51.426Z,3.30
2023-03-16T17:04:24.826Z,3.30
2023-03-16T17:06:57.020Z,3.20
2023-03-16T17:09:26.805Z,3.20
2023-03-16T17:12:01.083Z,3.16
2023-03-16T17:14:32.725Z,3.12
2023-03-16T17:17:13.124Z,3.10
2023-03-16T17:19:39.860Z,3.10
2023-03-16T17:22:26.739Z,3.00
2023-03-16T17:24:57.851Z,3.00
2023-03-16T17:27:29.963Z,3.00
2023-03-16T17:29:57.519Z,3.00
2023-03-16T17:32:26.453Z,3.00
2023-03-16T17:34:53.327Z,2.90
2023-03-16T17:37:21.681Z,2.88
2023-03-16T17:39:48.598Z,2.80
2023-03-16T17:42:21.874Z,2.70
2023-03-16T17:44:52.619Z,2.60
2023-03-16T17:47:24.436Z,2.50
2023-03-16T17:49:52.380Z,2.46
2023-03-16T17:52:25.063Z,2.40
2023-03-16T17:54:53.565Z,2.40
2023-03-16T17:57:32.857Z,2.30
2023-03-16T18:00:01.868Z,2.20
2023-03-16T18:02:40.606Z,2.20
2023-03-16T18:05:23.982Z,2.10
2023-03-16T18:07:52.095Z,2.00
2023-03-16T18:10:27.855Z,1.90
2023-03-16T18:13:12.976Z,1.78
2023-03-16T18:15:39.587Z,1.70
2023-03-16T18:18:07.568Z,1.60
2023-03-16T18:20:36.214Z,1.50
2023-03-16T18:23:26.388Z,1.40
2023-03-16T18:25:55.668Z,1.40
2023-03-16T18:28:22.948Z,1.30
2023-03-16T18:30:52.012Z,1.20
2023-03-16T18:33:30.172Z,1.20
2023-03-16T18:36:01.655Z,1.18
2023-03-16T18:38:36.734Z,1.10
2023-03-16T18:41:28.498Z,1.04
2023-03-16T18:43:58.879Z,1.00
2023-03-16T18:46:31.426Z,0.90
2023-03-16T18:49:02.928Z,0.90
2023-03-16T18:51:30.961Z,0.90
2023-03-16T18:53:57.939Z,0.90
2023-03-16T18:56:28.142Z,0.90
2023-03-16T18:58:57.760Z,1.00
2023-03-16T19:01:32.575Z,1.00
2023-03-16T19:04:01.503Z,1.02
2023-03-16T19:06:35.124Z,1.10
2023-03-16T19:09:20.866Z,1.10
2023-03-16T19:11:49.040Z,1.04
2023-03-16T19:14:30.175Z,0.96
2023-03-16T19:16:56.825Z,0.90
2023-03-16T19:19:24.421Z,0.90
2023-03-16T19:22:17.621Z,0.90
2023-03-16T19:24:53.702Z,0.78
2023-03-16T19:27:25.710Z,0.70
2023-03-16T19:29:54.034Z,0.66
2023-03-16T19:32:21.731Z,0.66
2023-03-16T19:34:49.599Z,0.64
2023-03-16T19:37:23.613Z,0.60
2023-03-16T19:39:50.588Z,0.60
2023-03-16T19:42:32.908Z,0.50
2023-03-16T19:45:00.329Z,0.48
2023-03-16T19:47:34.280Z,0.40
2023-03-16T19:50:01.292Z,0.40
2023-03-16T19:52:30.576Z,0.30
2023-03-16T19:54:57.052Z,0.20
2023-03-16T19:57:23.748Z,0.10
2023-03-16T19:59:56.083Z,0.10
2023-03-16T20:02:27.941Z,0.10
2023-03-16T20:04:56.799Z,0.00
2023-03-16T20:07:25.993Z,0.00
2023-03-16T20:09:52.471Z,0.00
2023-03-16T20:12:26.559Z,0.00
2023-03-16T20:14:55.920Z,0.00
2023-03-16T20:17:28.503Z,-0.08
2023-03-16T20:19:57.023Z,-0.10
2023-03-16T20:22:27.884Z,-0.16
2023-03-16T20:24:57.216Z,-0.20
2023-03-16T20:27:27.078Z,-0.24
2023-03-16T20:29:53.709Z,-0.30
2023-03-16T20:32:24.044Z,-0.30
2023-03-16T20:34:51.009Z,-0.40
2023-03-16T20:37:26.531Z,-0.40
2023-03-16T20:39:57.538Z,-0.40
2023-03-16T20:42:32.880Z,-0.40
2023-03-16T20:45:00.662Z,-0.40
2023-03-16T20:47:27.386Z,-0.40
2023-03-16T20:49:56.858Z,-0.40
2023-03-16T20:52:28.829Z,-0.32
2023-03-16T20:54:57.608Z,-0.40
2023-03-16T20:57:27.030Z,-0.40
2023-03-16T20:59:55.871Z,-0.32
2023-03-16T21:02:33.452Z,-0.30
2023-03-16T21:05:04.269Z,-0.30
2023-03-16T21:07:31.737Z,-0.40
2023-03-16T21:10:00.975Z,-0.40
2023-03-16T21:12:34.835Z,-0.50
2023-03-16T21:15:15.600Z,-0.58
2023-03-16T21:17:43.110Z,-0.60
2023-03-16T21:20:19.890Z,-0.60
2023-03-16T21:22:46.402Z,-0.50
2023-03-16T21:25:25.448Z,-0.60
2023-03-16T21:27:54.860Z,-0.70
2023-03-16T21:30:36.728Z,-0.76
2023-03-16T21:33:17.883Z,-0.80
2023-03-16T21:35:45.174Z,-0.90
2023-03-16T21:38:16.281Z,-0.90
2023-03-16T21:40:44.071Z,-0.98
2023-03-16T21:43:12.073Z,-0.90
2023-03-16T21:45:40.529Z,-0.90
2023-03-16T21:48:29.014Z,-0.94
2023-03-16T21:50:56.536Z,-1.00
2023-03-16T21:53:27.986Z,-1.00
2023-03-16T21:55:56.586Z,-0.90
2023-03-16T21:58:23.875Z,-0.94
2023-03-16T22:00:53.786Z,-1.00
2023-03-16T22:03:44.250Z,-1.10
2023-03-16T22:06:16.454Z,-1.00
2023-03-16T22:08:43.349Z,-1.00
2023-03-16T22:11:17.456Z,-0.90
2023-03-16T22:13:45.412Z,-1.00
2023-03-16T22:16:17.436Z,-1.00
2023-03-16T22:18:47.400Z,-1.10
2023-03-16T22:21:36.936Z,-1.10
2023-03-16T22:24:18.498Z,-1.10
2023-03-16T22:26:46.037Z,-1.10
2023-03-16T22:29:24.646Z,-1.16
2023-03-16T22:32:03.895Z,-1.20
2023-03-16T22:34:55.310Z,-1.14
2023-03-16T22:37:26.835Z,-1.12
2023-03-16T22:39:56.750Z,-1.10
2023-03-16T22:42:37.942Z,-1.20
2023-03-16T22:45:30.620Z,-1.20
2023-03-16T22:48:01.877Z,-1.12
2023-03-16T22:50:35.229Z,-1.10
2023-03-16T22:53:06.529Z,-1.20
2023-03-16T22:55:38.355Z,-1.20
2023-03-16T22:58:20.788Z,-1.26
2023-03-16T23:00:47.358Z,-1.24
2023-03-16T23:03:19.226Z,-1.26
2023-03-16T23:05:46.397Z,-1.24
2023-03-16T23:08:18.075Z,-1.20
2023-03-16T23:10:45.566Z,-1.20
2023-03-16T23:13:19.686Z,-1.10
2023-03-16T23:15:48.797Z,-1.08
2023-03-16T23:18:25.451Z,-1.04
2023-03-16T23:20:52.356Z,-1.00
2023-03-16T23:23:18.907Z,-1.00
2023-03-16T23:25:47.707Z,-1.00
2023-03-16T23:28:24.226Z,-1.00
2023-03-16T23:30:50.924Z,-1.00
2023-03-16T23:33:17.402Z,-1.00
2023-03-16T23:35:45.866Z,-1.00
2023-03-16T23:38:12.846Z,-1.00
2023-03-16T23:40:40.205Z,-1.00
2023-03-16T23:43:08.499Z,-0.96
2023-03-16T23:45:44.588Z,-0.90
2023-03-16T23:48:21.555Z,-0.76
2023-03-16T23:50:52.556Z,-0.60
2023-03-16T23:53:19.853Z,-0.60
2023-03-16T23:55:47.763Z,-0.60
2023-03-16T23:58:15.830Z,-0.50
